sensor_id;sensor_type;location;lat;lon;timestamp;pressure;altitude;pressure_sealevel;temperature;humidity
28312;BME280;15572;48.810;9.148;2024-02-28T00:02:27;98057.91;;;7.51;100.00
28312;BME280;15572;48.810;9.148;2024-02-28T00:07:26;98059.09;;;7.48;100.00
28312;BME280;15572;48.810;9.148;2024-02-28T00:12:23;98064.69;;;7.47;100.00
28312;BME280;15572;48.810;9.148;2024-02-28T00:17:20;98063.19;;;7.44;100.00
28312;BME280;15572;48.810;9.148;2024-02-28T00:22:17;98070.78;;;7.41;100.00
28312;BME280;15572;48.810;9.148;2024-02-28T00:27:15;98069.28;;;7.38;100.00
28312;BME280;15572;48.810;9.148;2024-02-28T00:32:11;98070.84;;;7.33;100.00
28312;BME280;15572;48.810;9.148;2024-02-28T00:37:08;98071.03;;;7.31;100.00
28312;BME280;15572;48.810;9.148;2024-02-28T00:42:04;98072.88;;;7.31;100.00
28312;BME280;15572;48.810;9.148;2024-02-28T00:47:02;98068.84;;;7.27;100.00
28312;BME280;15572;48.810;9.148;2024-02-28T00:51:58;98071.06;;;7.23;100.00
28312;BME280;15572;48.810;9.148;2024-02-28T00:56:55;98071.06;;;7.23;100.00
28312;BME280;15572;48.810;9.148;2024-02-28T01:01:51;98069.38;;;7.22;100.00
28312;BME280;15572;48.810;9.148;2024-02-28T01:06:49;98080.16;;;7.22;100.00
28312;BME280;15572;48.810;9.148;2024-02-28T01:11:45;98078.50;;;7.21;100.00
28312;BME280;15572;48.810;9.148;2024-02-28T01:16:42;98071.25;;;7.22;100.00
28312;BME280;15572;48.810;9.148;2024-02-28T01:21:38;98081.84;;;7.23;100.00
28312;BME280;15572;48.810;9.148;2024-02-28T01:26:37;98082.50;;;7.25;100.00
28312;BME280;15572;48.810;9.148;2024-02-28T01:31:33;98081.19;;;7.21;100.00
28312;BME280;15572;48.810;9.148;2024-02-28T01:36:29;98080.69;;;7.17;100.00
28312;BME280;15572;48.810;9.148;2024-02-28T01:41:26;98089.16;;;7.14;100.00
28312;BME280;15572;48.810;9.148;2024-02-28T01:46:25;98095.56;;;7.05;100.00
28312;BME280;15572;48.810;9.148;2024-02-28T01:51:24;98099.09;;;7.06;100.00
28312;BME280;15572;48.810;9.148;2024-02-28T01:56:22;98101.16;;;7.04;100.00
28312;BME280;15572;48.810;9.148;2024-02-28T02:01:19;98109.63;;;6.93;100.00
28312;BME280;15572;48.810;9.148;2024-02-28T02:06:17;98112.00;;;6.80;100.00
28312;BME280;15572;48.810;9.148;2024-02-28T02:11:14;98114.25;;;6.68;100.00
28312;BME280;15572;48.810;9.148;2024-02-28T02:16:12;98115.97;;;6.61;100.00
28312;BME280;15572;48.810;9.148;2024-02-28T02:21:11;98127.25;;;6.56;100.00
28312;BME280;15572;48.810;9.148;2024-02-28T02:26:10;98120.41;;;6.46;100.00
28312;BME280;15572;48.810;9.148;2024-02-28T02:31:06;98124.94;;;6.45;100.00
28312;BME280;15572;48.810;9.148;2024-02-28T02:36:03;98133.53;;;6.41;100.00
28312;BME280;15572;48.810;9.148;2024-02-28T02:40:59;98141.91;;;6.38;100.00
28312;BME280;15572;48.810;9.148;2024-02-28T02:45:57;98137.41;;;6.30;100.00
28312;BME280;15572;48.810;9.148;2024-02-28T02:50:53;98147.84;;;6.25;100.00
28312;BME280;15572;48.810;9.148;2024-02-28T02:55:50;98161.28;;;6.25;100.00
28312;BME280;15572;48.810;9.148;2024-02-28T03:00:46;98159.41;;;6.25;100.00
28312;BME280;15572;48.810;9.148;2024-02-28T03:05:44;98170.00;;;6.27;100.00
28312;BME280;15572;48.810;9.148;2024-02-28T03:10:40;98183.78;;;6.24;100.00
28312;BME280;15572;48.810;9.148;2024-02-28T03:15:37;98187.16;;;6.18;100.00
28312;BME280;15572;48.810;9.148;2024-02-28T03:20:33;98195.03;;;6.11;100.00
28312;BME280;15572;48.810;9.148;2024-02-28T03:25:34;98203.94;;;6.12;100.00
28312;BME280;15572;48.810;9.148;2024-02-28T03:30:31;98210.16;;;6.12;100.00
28312;BME280;15572;48.810;9.148;2024-02-28T03:35:27;98207.13;;;6.15;100.00
28312;BME280;15572;48.810;9.148;2024-02-28T03:40:24;98215.03;;;6.17;100.00
28312;BME280;15572;48.810;9.148;2024-02-28T03:45:22;98217.72;;;6.17;100.00
28312;BME280;15572;48.810;9.148;2024-02-28T03:50:19;98240.56;;;6.13;100.00
28312;BME280;15572;48.810;9.148;2024-02-28T03:55:15;98236.19;;;6.12;100.00
28312;BME280;15572;48.810;9.148;2024-02-28T04:00:12;98240.91;;;6.10;100.00
28312;BME280;15572;48.810;9.148;2024-02-28T04:05:10;98252.16;;;6.05;100.00
28312;BME280;15572;48.810;9.148;2024-02-28T04:10:08;98248.63;;;6.05;100.00
28312;BME280;15572;48.810;9.148;2024-02-28T04:15:06;98251.66;;;6.02;100.00
28312;BME280;15572;48.810;9.148;2024-02-28T04:20:03;98252.81;;;5.99;100.00
28312;BME280;15572;48.810;9.148;2024-02-28T04:25:02;98263.06;;;5.96;100.00
28312;BME280;15572;48.810;9.148;2024-02-28T04:29:58;98257.69;;;5.96;100.00
28312;BME280;15572;48.810;9.148;2024-02-28T04:34:55;98260.19;;;5.89;100.00
28312;BME280;15572;48.810;9.148;2024-02-28T04:39:51;98267.03;;;5.83;100.00
28312;BME280;15572;48.810;9.148;2024-02-28T04:44:49;98273.91;;;5.78;100.00
28312;BME280;15572;48.810;9.148;2024-02-28T04:49:45;98274.75;;;5.70;100.00
28312;BME280;15572;48.810;9.148;2024-02-28T04:54:42;98276.22;;;5.65;100.00
28312;BME280;15572;48.810;9.148;2024-02-28T04:59:38;98270.31;;;5.61;100.00
28312;BME280;15572;48.810;9.148;2024-02-28T05:04:36;98278.03;;;5.56;100.00
28312;BME280;15572;48.810;9.148;2024-02-28T05:09:32;98280.38;;;5.51;100.00
28312;BME280;15572;48.810;9.148;2024-02-28T05:14:29;98273.34;;;5.50;100.00
28312;BME280;15572;48.810;9.148;2024-02-28T05:19:25;98280.38;;;5.51;100.00
28312;BME280;15572;48.810;9.148;2024-02-28T05:24:23;98284.38;;;5.47;100.00
28312;BME280;15572;48.810;9.148;2024-02-28T05:29:19;98294.81;;;5.50;100.00
28312;BME280;15572;48.810;9.148;2024-02-28T05:34:16;98289.91;;;5.45;100.00
28312;BME280;15572;48.810;9.148;2024-02-28T05:39:12;98293.28;;;5.39;100.00
28312;BME280;15572;48.810;9.148;2024-02-28T05:44:10;98301.34;;;5.39;100.00
28312;BME280;15572;48.810;9.148;2024-02-28T05:49:06;98302.31;;;5.38;100.00
28312;BME280;15572;48.810;9.148;2024-02-28T05:54:03;98316.91;;;5.36;100.00
28312;BME280;15572;48.810;9.148;2024-02-28T05:58:59;98326.63;;;5.37;100.00
28312;BME280;15572;48.810;9.148;2024-02-28T06:03:57;98321.75;;;5.32;100.00
28312;BME280;15572;48.810;9.148;2024-02-28T06:08:53;98334.34;;;5.32;100.00
28312;BME280;15572;48.810;9.148;2024-02-28T06:13:51;98344.94;;;5.33;100.00
28312;BME280;15572;48.810;9.148;2024-02-28T06:18:47;98338.72;;;5.33;100.00
28312;BME280;15572;48.810;9.148;2024-02-28T06:23:46;98354.50;;;5.36;100.00
28312;BME280;15572;48.810;9.148;2024-02-28T06:28:43;98363.75;;;5.41;100.00
28312;BME280;15572;48.810;9.148;2024-02-28T06:33:40;98355.22;;;5.46;100.00
28312;BME280;15572;48.810;9.148;2024-02-28T06:38:37;98373.84;;;5.47;100.00
28312;BME280;15572;48.810;9.148;2024-02-28T06:43:35;98379.38;;;5.46;100.00
28312;BME280;15572;48.810;9.148;2024-02-28T06:48:31;98378.22;;;5.48;100.00
28312;BME280;15572;48.810;9.148;2024-02-28T06:53:27;98391.03;;;5.55;100.00
28312;BME280;15572;48.810;9.148;2024-02-28T06:58:24;98383.97;;;5.54;100.00
28312;BME280;15572;48.810;9.148;2024-02-28T07:03:22;98386.31;;;5.57;100.00
28312;BME280;15572;48.810;9.148;2024-02-28T07:08:21;98389.69;;;5.59;100.00
28312;BME280;15572;48.810;9.148;2024-02-28T07:13:17;98398.09;;;5.64;100.00
28312;BME280;15572;48.810;9.148;2024-02-28T07:18:14;98414.38;;;5.62;100.00
28312;BME280;15572;48.810;9.148;2024-02-28T07:23:12;98424.13;;;5.63;100.00
28312;BME280;15572;48.810;9.148;2024-02-28T07:28:09;98431.22;;;5.72;100.00
28312;BME280;15572;48.810;9.148;2024-02-28T07:33:05;98435.56;;;5.65;100.00
28312;BME280;15572;48.810;9.148;2024-02-28T07:38:02;98436.69;;;5.55;100.00
28312;BME280;15572;48.810;9.148;2024-02-28T07:43:00;98446.22;;;5.49;100.00
28312;BME280;15572;48.810;9.148;2024-02-28T07:47:57;98457.22;;;5.38;100.00
28312;BME280;15572;48.810;9.148;2024-02-28T07:52:53;98462.25;;;5.41;100.00
28312;BME280;15572;48.810;9.148;2024-02-28T07:57:51;98471.59;;;5.55;100.00
28312;BME280;15572;48.810;9.148;2024-02-28T08:02:48;98474.66;;;5.60;100.00
28312;BME280;15572;48.810;9.148;2024-02-28T08:07:45;98474.47;;;5.61;100.00
28312;BME280;15572;48.810;9.148;2024-02-28T08:12:41;98482.22;;;5.64;100.00
28312;BME280;15572;48.810;9.148;2024-02-28T08:17:37;98486.41;;;5.67;100.00
28312;BME280;15572;48.810;9.148;2024-02-28T08:22:35;98484.56;;;5.67;100.00
28312;BME280;15572;48.810;9.148;2024-02-28T08:27:32;98481.22;;;5.65;100.00
28312;BME280;15572;48.810;9.148;2024-02-28T08:32:29;98479.06;;;5.69;100.00
28312;BME280;15572;48.810;9.148;2024-02-28T08:37:26;98489.03;;;5.76;100.00
28312;BME280;15572;48.810;9.148;2024-02-28T08:42:25;98486.31;;;5.76;100.00
28312;BME280;15572;48.810;9.148;2024-02-28T08:47:22;98487.59;;;5.90;100.00
28312;BME280;15572;48.810;9.148;2024-02-28T08:52:19;98492.91;;;5.82;100.00
28312;BME280;15572;48.810;9.148;2024-02-28T08:57:16;98501.19;;;5.88;100.00
28312;BME280;15572;48.810;9.148;2024-02-28T09:02:14;98501.09;;;5.98;100.00
28312;BME280;15572;48.810;9.148;2024-02-28T09:07:11;98507.38;;;6.15;100.00
28312;BME280;15572;48.810;9.148;2024-02-28T09:12:07;98508.50;;;6.04;100.00
28312;BME280;15572;48.810;9.148;2024-02-28T09:17:04;98504.88;;;6.13;100.00
28312;BME280;15572;48.810;9.148;2024-02-28T09:22:02;98513.28;;;6.18;100.00
28312;BME280;15572;48.810;9.148;2024-02-28T09:26:58;98505.56;;;6.23;100.00
28312;BME280;15572;48.810;9.148;2024-02-28T09:31:54;98493.81;;;6.24;100.00
28312;BME280;15572;48.810;9.148;2024-02-28T09:36:51;98507.69;;;6.54;100.00
28312;BME280;15572;48.810;9.148;2024-02-28T09:41:48;98499.97;;;6.59;100.00
28312;BME280;15572;48.810;9.148;2024-02-28T09:46:45;98505.53;;;6.65;100.00
28312;BME280;15572;48.810;9.148;2024-02-28T09:51:44;98506.38;;;6.66;100.00
28312;BME280;15572;48.810;9.148;2024-02-28T09:56:43;98511.31;;;6.87;100.00
28312;BME280;15572;48.810;9.148;2024-02-28T10:01:43;98517.22;;;7.06;100.00
28312;BME280;15572;48.810;9.148;2024-02-28T10:06:40;98523.13;;;7.10;100.00
28312;BME280;15572;48.810;9.148;2024-02-28T10:11:36;98506.47;;;7.14;100.00
28312;BME280;15572;48.810;9.148;2024-02-28T10:16:33;98520.44;;;7.18;100.00
28312;BME280;15572;48.810;9.148;2024-02-28T10:21:31;98525.56;;;6.71;100.00
28312;BME280;15572;48.810;9.148;2024-02-28T10:26:28;98534.69;;;6.78;100.00
28312;BME280;15572;48.810;9.148;2024-02-28T10:31:28;98540.56;;;6.82;100.00
28312;BME280;15572;48.810;9.148;2024-02-28T10:36:24;98542.75;;;6.86;100.00
28312;BME280;15572;48.810;9.148;2024-02-28T10:41:22;98553.63;;;6.68;100.00
28312;BME280;15572;48.810;9.148;2024-02-28T10:46:19;98557.00;;;6.62;100.00
28312;BME280;15572;48.810;9.148;2024-02-28T10:51:21;98568.81;;;6.78;100.00
28312;BME280;15572;48.810;9.148;2024-02-28T10:56:19;98568.28;;;6.74;100.00
28312;BME280;15572;48.810;9.148;2024-02-28T11:01:17;98573.00;;;6.80;100.00
28312;BME280;15572;48.810;9.148;2024-02-28T11:06:17;98565.09;;;6.78;100.00
28312;BME280;15572;48.810;9.148;2024-02-28T11:11:14;98568.84;;;6.86;100.00
28312;BME280;15572;48.810;9.148;2024-02-28T11:16:12;98574.06;;;6.87;100.00
28312;BME280;15572;48.810;9.148;2024-02-28T11:21:16;98588.72;;;7.01;100.00
28312;BME280;15572;48.810;9.148;2024-02-28T11:26:12;98576.94;;;7.02;100.00
28312;BME280;15572;48.810;9.148;2024-02-28T11:31:09;98591.25;;;6.94;100.00
28312;BME280;15572;48.810;9.148;2024-02-28T11:36:06;98583.31;;;6.93;100.00
28312;BME280;15572;48.810;9.148;2024-02-28T11:41:04;98583.13;;;6.86;100.00
28312;BME280;15572;48.810;9.148;2024-02-28T11:46:01;98585.00;;;6.94;100.00
28312;BME280;15572;48.810;9.148;2024-02-28T11:50:57;98585.00;;;6.94;100.00
28312;BME280;15572;48.810;9.148;2024-02-28T11:55:54;98585.31;;;6.91;100.00
28312;BME280;15572;48.810;9.148;2024-02-28T12:00:53;98576.59;;;6.89;100.00
28312;BME280;15572;48.810;9.148;2024-02-28T12:05:51;98576.59;;;6.89;100.00
28312;BME280;15572;48.810;9.148;2024-02-28T12:10:48;98570.88;;;6.92;100.00
28312;BME280;15572;48.810;9.148;2024-02-28T12:15:45;98579.13;;;7.06;100.00
28312;BME280;15572;48.810;9.148;2024-02-28T12:20:44;98575.44;;;7.07;100.00
28312;BME280;15572;48.810;9.148;2024-02-28T12:25:42;98569.72;;;7.02;100.00
28312;BME280;15572;48.810;9.148;2024-02-28T12:30:40;98560.94;;;6.92;100.00
28312;BME280;15572;48.810;9.148;2024-02-28T12:35:37;98563.84;;;6.99;100.00
28312;BME280;15572;48.810;9.148;2024-02-28T12:40:35;98559.63;;;7.04;100.00
28312;BME280;15572;48.810;9.148;2024-02-28T12:45:31;98565.13;;;6.95;100.00
28312;BME280;15572;48.810;9.148;2024-02-28T12:50:28;98561.63;;;7.02;100.00
28312;BME280;15572;48.810;9.148;2024-02-28T12:55:24;98559.28;;;6.99;100.00
28312;BME280;15572;48.810;9.148;2024-02-28T13:00:22;98567.47;;;6.90;100.00
28312;BME280;15572;48.810;9.148;2024-02-28T13:05:18;98548.25;;;6.68;100.00
28312;BME280;15572;48.810;9.148;2024-02-28T13:10:15;98546.94;;;6.81;100.00
28312;BME280;15572;48.810;9.148;2024-02-28T13:15:11;98555.53;;;6.84;100.00
28312;BME280;15572;48.810;9.148;2024-02-28T13:20:09;98549.16;;;6.85;100.00
28312;BME280;15572;48.810;9.148;2024-02-28T13:25:07;98555.88;;;6.89;100.00
28312;BME280;15572;48.810;9.148;2024-02-28T13:30:05;98550.84;;;6.86;100.00
28312;BME280;15572;48.810;9.148;2024-02-28T13:35:02;98561.63;;;6.94;100.00
28312;BME280;15572;48.810;9.148;2024-02-28T13:40:00;98557.56;;;6.90;100.00
28312;BME280;15572;48.810;9.148;2024-02-28T13:44:59;98547.50;;;6.92;100.00
28312;BME280;15572;48.810;9.148;2024-02-28T13:49:56;98538.94;;;7.13;100.00
28312;BME280;15572;48.810;9.148;2024-02-28T13:54:52;98526.81;;;7.33;100.00
28312;BME280;15572;48.810;9.148;2024-02-28T13:59:50;98523.97;;;7.51;100.00
28312;BME280;15572;48.810;9.148;2024-02-28T14:04:49;98529.53;;;7.57;100.00
28312;BME280;15572;48.810;9.148;2024-02-28T14:09:45;98533.91;;;7.34;100.00
28312;BME280;15572;48.810;9.148;2024-02-28T14:14:42;98545.34;;;7.04;100.00
28312;BME280;15572;48.810;9.148;2024-02-28T14:19:40;98543.09;;;6.91;100.00
28312;BME280;15572;48.810;9.148;2024-02-28T14:24:36;98536.25;;;7.05;100.00
28312;BME280;15572;48.810;9.148;2024-02-28T14:29:33;98547.19;;;7.19;100.00
28312;BME280;15572;48.810;9.148;2024-02-28T14:34:30;98540.63;;;7.22;100.00
28312;BME280;15572;48.810;9.148;2024-02-28T14:39:28;98543.66;;;7.19;100.00
28312;BME280;15572;48.810;9.148;2024-02-28T14:44:24;98538.97;;;7.21;100.00
28312;BME280;15572;48.810;9.148;2024-02-28T14:49:21;98526.81;;;7.09;100.00
28312;BME280;15572;48.810;9.148;2024-02-28T14:54:17;98539.63;;;7.15;100.00
28312;BME280;15572;48.810;9.148;2024-02-28T14:59:19;98536.41;;;7.03;100.00
28312;BME280;15572;48.810;9.148;2024-02-28T15:04:15;98534.06;;;7.08;100.00
28312;BME280;15572;48.810;9.148;2024-02-28T15:09:12;98542.13;;;7.08;100.00
28312;BME280;15572;48.810;9.148;2024-02-28T15:14:09;98542.25;;;6.91;100.00
28312;BME280;15572;48.810;9.148;2024-02-28T15:19:07;98536.56;;;6.94;100.00
28312;BME280;15572;48.810;9.148;2024-02-28T15:24:03;98539.94;;;7.04;100.00
28312;BME280;15572;48.810;9.148;2024-02-28T15:29:00;98530.88;;;7.13;100.00
28312;BME280;15572;48.810;9.148;2024-02-28T15:33:56;98531.69;;;6.97;100.00
28312;BME280;15572;48.810;9.148;2024-02-28T15:38:54;98534.72;;;7.02;100.00
28312;BME280;15572;48.810;9.148;2024-02-28T15:43:50;98532.72;;;7.04;100.00
28312;BME280;15572;48.810;9.148;2024-02-28T15:48:47;98532.72;;;7.04;100.00
28312;BME280;15572;48.810;9.148;2024-02-28T15:53:43;98526.47;;;7.04;100.00
28312;BME280;15572;48.810;9.148;2024-02-28T15:58:41;98529.19;;;7.04;100.00
28312;BME280;15572;48.810;9.148;2024-02-28T16:03:38;98527.50;;;7.03;100.00
28312;BME280;15572;48.810;9.148;2024-02-28T16:08:39;98529.84;;;6.98;100.00
28312;BME280;15572;48.810;9.148;2024-02-28T16:13:36;98530.00;;;6.96;100.00
28312;BME280;15572;48.810;9.148;2024-02-28T16:18:34;98540.56;;;6.90;100.00
28312;BME280;15572;48.810;9.148;2024-02-28T16:23:30;98539.59;;;6.99;100.00
28312;BME280;15572;48.810;9.148;2024-02-28T16:28:27;98538.94;;;7.05;100.00
28312;BME280;15572;48.810;9.148;2024-02-28T16:33:23;98538.09;;;7.04;100.00
28312;BME280;15572;48.810;9.148;2024-02-28T16:38:21;98550.69;;;6.96;100.00
28312;BME280;15572;48.810;9.148;2024-02-28T16:43:18;98552.03;;;7.00;100.00
28312;BME280;15572;48.810;9.148;2024-02-28T16:48:14;98556.75;;;6.98;100.00
28312;BME280;15572;48.810;9.148;2024-02-28T16:53:11;98548.84;;;6.96;100.00
28312;BME280;15572;48.810;9.148;2024-02-28T16:58:08;98548.00;;;6.96;100.00
28312;BME280;15572;48.810;9.148;2024-02-28T17:03:05;98554.06;;;6.98;100.00
28312;BME280;15572;48.810;9.148;2024-02-28T17:08:01;98556.91;;;6.96;100.00
28312;BME280;15572;48.810;9.148;2024-02-28T17:12:58;98558.41;;;6.91;100.00
28312;BME280;15572;48.810;9.148;2024-02-28T17:17:56;98556.72;;;6.90;100.00
28312;BME280;15572;48.810;9.148;2024-02-28T17:22:52;98567.47;;;6.82;100.00
28312;BME280;15572;48.810;9.148;2024-02-28T17:27:48;98570.81;;;6.75;100.00
28312;BME280;15572;48.810;9.148;2024-02-28T17:32:45;98573.50;;;6.75;100.00
28312;BME280;15572;48.810;9.148;2024-02-28T17:37:45;98567.75;;;6.62;100.00
28312;BME280;15572;48.810;9.148;2024-02-28T17:42:41;98579.19;;;6.64;100.00
28312;BME280;15572;48.810;9.148;2024-02-28T17:47:38;98578.34;;;6.64;100.00
28312;BME280;15572;48.810;9.148;2024-02-28T17:52:34;98582.88;;;6.63;100.00
28312;BME280;15572;48.810;9.148;2024-02-28T17:57:32;98585.91;;;6.60;100.00
28312;BME280;15572;48.810;9.148;2024-02-28T18:02:30;98588.94;;;6.65;100.00
28312;BME280;15572;48.810;9.148;2024-02-28T18:07:26;98593.34;;;6.66;100.00
28312;BME280;15572;48.810;9.148;2024-02-28T18:12:23;98593.50;;;6.65;100.00
28312;BME280;15572;48.810;9.148;2024-02-28T18:17:21;98594.19;;;6.67;100.00
28312;BME280;15572;48.810;9.148;2024-02-28T18:22:17;98601.22;;;6.68;100.00
28312;BME280;15572;48.810;9.148;2024-02-28T18:27:13;98596.38;;;6.71;100.00
28312;BME280;15572;48.810;9.148;2024-02-28T18:32:10;98600.06;;;6.70;100.00
28312;BME280;15572;48.810;9.148;2024-02-28T18:37:08;98592.69;;;6.72;100.00
28312;BME280;15572;48.810;9.148;2024-02-28T18:42:05;98578.53;;;6.70;100.00
28312;BME280;15572;48.810;9.148;2024-02-28T18:47:01;98588.97;;;6.73;100.00
28312;BME280;15572;48.810;9.148;2024-02-28T18:51:58;98583.06;;;6.70;100.00
28312;BME280;15572;48.810;9.148;2024-02-28T18:56:55;98576.84;;;6.69;100.00
28312;BME280;15572;48.810;9.148;2024-02-28T19:01:52;98569.78;;;6.68;100.00
28312;BME280;15572;48.810;9.148;2024-02-28T19:06:48;98563.88;;;6.65;100.00
28312;BME280;15572;48.810;9.148;2024-02-28T19:11:45;98565.72;;;6.64;100.00
28312;BME280;15572;48.810;9.148;2024-02-28T19:16:43;98568.44;;;6.64;100.00
28312;BME280;15572;48.810;9.148;2024-02-28T19:21:40;98574.50;;;6.66;100.00
28312;BME280;15572;48.810;9.148;2024-02-28T19:26:36;98575.16;;;6.68;100.00
28312;BME280;15572;48.810;9.148;2024-02-28T19:31:33;98559.84;;;6.69;100.00
28312;BME280;15572;48.810;9.148;2024-02-28T19:36:31;98557.00;;;6.70;100.00
28312;BME280;15572;48.810;9.148;2024-02-28T19:41:28;98549.94;;;6.69;100.00
28312;BME280;15572;48.810;9.148;2024-02-28T19:46:25;98552.28;;;6.64;100.00
28312;BME280;15572;48.810;9.148;2024-02-28T19:51:22;98548.09;;;6.62;100.00
28312;BME280;15572;48.810;9.148;2024-02-28T19:56:19;98546.91;;;6.64;100.00
28312;BME280;15572;48.810;9.148;2024-02-28T20:01:17;98544.22;;;6.64;100.00
28312;BME280;15572;48.810;9.148;2024-02-28T20:06:14;98543.38;;;6.64;100.00
28312;BME280;15572;48.810;9.148;2024-02-28T20:11:10;98542.84;;;6.60;100.00
28312;BME280;15572;48.810;9.148;2024-02-28T20:16:08;98535.25;;;6.48;100.00
28312;BME280;15572;48.810;9.148;2024-02-28T20:21:05;98537.72;;;6.41;100.00
28312;BME280;15572;48.810;9.148;2024-02-28T20:26:03;98535.53;;;6.37;100.00
28312;BME280;15572;48.810;9.148;2024-02-28T20:31:00;98535.50;;;6.28;100.00
28312;BME280;15572;48.810;9.148;2024-02-28T20:35:57;98537.00;;;6.23;100.00
28312;BME280;15572;48.810;9.148;2024-02-28T20:40:54;98530.78;;;6.22;100.00
28312;BME280;15572;48.810;9.148;2024-02-28T20:45:50;98519.81;;;6.16;100.00
28312;BME280;15572;48.810;9.148;2024-02-28T20:50:47;98512.72;;;6.07;100.00
28312;BME280;15572;48.810;9.148;2024-02-28T20:55:45;98512.34;;;6.02;100.00
28312;BME280;15572;48.810;9.148;2024-02-28T21:00:41;98511.63;;;5.91;100.00
28312;BME280;15572;48.810;9.148;2024-02-28T21:05:37;98508.69;;;5.85;100.00
28312;BME280;15572;48.810;9.148;2024-02-28T21:10:34;98515.88;;;5.76;100.00
28312;BME280;15572;48.810;9.148;2024-02-28T21:15:32;98510.97;;;5.72;100.00
28312;BME280;15572;48.810;9.148;2024-02-28T21:20:29;98506.28;;;5.48;100.00
28312;BME280;15572;48.810;9.148;2024-02-28T21:25:25;98516.00;;;5.23;100.00
28312;BME280;15572;48.810;9.148;2024-02-28T21:30:22;98513.22;;;5.15;100.00
28312;BME280;15572;48.810;9.148;2024-02-28T21:35:19;98514.78;;;5.18;100.00
28312;BME280;15572;48.810;9.148;2024-02-28T21:40:16;98507.16;;;5.13;100.00
28312;BME280;15572;48.810;9.148;2024-02-28T21:45:15;98504.28;;;5.06;100.00
28312;BME280;15572;48.810;9.148;2024-02-28T21:50:13;98505.66;;;5.11;100.00
28312;BME280;15572;48.810;9.148;2024-02-28T21:55:11;98508.94;;;5.22;100.00
28312;BME280;15572;48.810;9.148;2024-02-28T22:00:08;98501.88;;;5.21;100.00
28312;BME280;15572;48.810;9.148;2024-02-28T22:05:06;98494.31;;;5.17;100.00
28312;BME280;15572;48.810;9.148;2024-02-28T22:10:03;98491.84;;;5.05;100.00
28312;BME280;15572;48.810;9.148;2024-02-28T22:15:01;98483.44;;;5.00;100.00
28312;BME280;15572;48.810;9.148;2024-02-28T22:19:59;98476.97;;;4.93;100.00
28312;BME280;15572;48.810;9.148;2024-02-28T22:24:55;98484.72;;;4.79;100.00
28312;BME280;15572;48.810;9.148;2024-02-28T22:29:51;98483.03;;;4.78;100.00
28312;BME280;15572;48.810;9.148;2024-02-28T22:34:49;98470.31;;;4.80;100.00
28312;BME280;15572;48.810;9.148;2024-02-28T22:39:46;98472.41;;;4.68;100.00
28312;BME280;15572;48.810;9.148;2024-02-28T22:44:43;98471.13;;;4.45;100.00
28312;BME280;15572;48.810;9.148;2024-02-28T22:49:39;98460.69;;;4.24;100.00
28312;BME280;15572;48.810;9.148;2024-02-28T22:54:41;98466.72;;;4.08;100.00
28312;BME280;15572;48.810;9.148;2024-02-28T22:59:38;98468.28;;;4.01;100.00
28312;BME280;15572;48.810;9.148;2024-02-28T23:04:34;98468.66;;;3.89;100.00
28312;BME280;15572;48.810;9.148;2024-02-28T23:09:31;98469.16;;;3.65;100.00
28312;BME280;15572;48.810;9.148;2024-02-28T23:14:29;98453.56;;;3.51;100.00
28312;BME280;15572;48.810;9.148;2024-02-28T23:19:28;98453.56;;;3.51;100.00
28312;BME280;15572;48.810;9.148;2024-02-28T23:24:28;98442.91;;;3.41;100.00
28312;BME280;15572;48.810;9.148;2024-02-28T23:29:24;98437.16;;;3.26;100.00
28312;BME280;15572;48.810;9.148;2024-02-28T23:34:22;98432.81;;;3.16;100.00
28312;BME280;15572;48.810;9.148;2024-02-28T23:39:18;98424.41;;;3.01;100.00
28312;BME280;15572;48.810;9.148;2024-02-28T23:44:15;98423.97;;;2.96;100.00
28312;BME280;15572;48.810;9.148;2024-02-28T23:49:11;98419.91;;;2.92;100.00
28312;BME280;15572;48.810;9.148;2024-02-28T23:54:09;98413.44;;;2.85;100.00
28312;BME280;15572;48.810;9.148;2024-02-28T23:59:05;98403.03;;;2.82;100.00
